Portada
METAR-TAF:

METAR-TAF

Aeroports :

Sinop, Turquia

latitud: 42-00-57N, longitud: 035-03-59E, altitud: 7 m

Observació

L'informe es va fer fa 1 hora i 21 minuts, a les 13:50 UTC
Vent 3 kt del Est/Sud-Est
Temperatura 10°C
Humitat 82%
Pressió 1018 hPa
Visibilitat 10 km o més
Núvols disperses a una alçada de 3300 ft
Cel ennuvolat a una alçada de 9000 ft

METAR: LTCM 091350Z 11003KT 9999 SCT033 BKN090 10/07 Q1018

Hora: 18:11 (15:11 UTC)

Pronòstic

L'informe es va fer fa 1 hora i 31 minuts, a les 13:40 UTC
Pronòstic vàlid del 09 a les 15 UTC al 09 a les 24 UTC
Vent 8 kt del Sud/Sud-Oest
Visibilitat 10 km o més
Escasses núvols a una alçada de 3600 ft
Núvols disperses a una alçada de 10000 ft

TAF: LTCM 091340Z 0915/0924 20008KT 9999 FEW036 SCT100

Observacions i pronòstics meteorològics de més de 4000 aeroports (METAR i TAF).

Les estacions disponibles són els punts grocs i vermells al mapa.

Posi el ratolí al punt desitjat per veure el nom de l'estació.

Feu clic per veure les observacions i els pronòstics meteorològics.

Per canviar el mapa: feu clic els botons verds amb una creu de color negre per apropar; al botó verd amb un guió per allunyar la imatge; o en les fletxes verdes per a mapes adjacents.


METAR-TAF: